sensor_id;sensor_type;location;lat;lon;timestamp;temperature;humidity
40085;DHT22;25786;51.504;7.344;2022-08-11T00:00:43;21.20;53.70
40085;DHT22;25786;51.504;7.344;2022-08-11T00:03:12;21.10;55.00
40085;DHT22;25786;51.504;7.344;2022-08-11T00:05:51;21.10;54.80
40085;DHT22;25786;51.504;7.344;2022-08-11T00:08:28;21.00;55.50
40085;DHT22;25786;51.504;7.344;2022-08-11T00:11:04;20.90;54.10
40085;DHT22;25786;51.504;7.344;2022-08-11T00:13:34;20.80;55.30
40085;DHT22;25786;51.504;7.344;2022-08-11T00:16:00;20.90;53.00
40085;DHT22;25786;51.504;7.344;2022-08-11T00:18:26;20.90;53.90
40085;DHT22;25786;51.504;7.344;2022-08-11T00:20:51;20.80;54.30
40085;DHT22;25786;51.504;7.344;2022-08-11T00:23:22;20.90;53.20
40085;DHT22;25786;51.504;7.344;2022-08-11T00:25:49;20.90;53.30
40085;DHT22;25786;51.504;7.344;2022-08-11T00:28:28;20.80;53.90
40085;DHT22;25786;51.504;7.344;2022-08-11T00:30:55;20.70;54.50
40085;DHT22;25786;51.504;7.344;2022-08-11T00:33:22;20.60;54.50
40085;DHT22;25786;51.504;7.344;2022-08-11T00:35:48;20.60;55.40
40085;DHT22;25786;51.504;7.344;2022-08-11T00:38:15;20.50;55.80
40085;DHT22;25786;51.504;7.344;2022-08-11T00:40:43;20.50;55.10
40085;DHT22;25786;51.504;7.344;2022-08-11T00:43:14;20.60;54.00
40085;DHT22;25786;51.504;7.344;2022-08-11T00:48:31;20.50;55.20
40085;DHT22;25786;51.504;7.344;2022-08-11T00:51:18;20.50;54.90
40085;DHT22;25786;51.504;7.344;2022-08-11T00:54:02;20.50;54.70
40085;DHT22;25786;51.504;7.344;2022-08-11T00:56:45;20.40;56.80
40085;DHT22;25786;51.504;7.344;2022-08-11T01:02:14;20.20;57.80
40085;DHT22;25786;51.504;7.344;2022-08-11T01:10:06;20.00;57.50
40085;DHT22;25786;51.504;7.344;2022-08-11T01:25:41;19.70;58.90
40085;DHT22;25786;51.504;7.344;2022-08-11T01:33:48;19.70;59.30
40085;DHT22;25786;51.504;7.344;2022-08-11T01:44:15;19.60;59.70
40085;DHT22;25786;51.504;7.344;2022-08-11T01:50:06;19.50;59.80
40085;DHT22;25786;51.504;7.344;2022-08-11T01:52:35;19.50;59.90
40085;DHT22;25786;51.504;7.344;2022-08-11T01:57:34;19.40;59.90
40085;DHT22;25786;51.504;7.344;2022-08-11T02:00:05;19.30;59.00
40085;DHT22;25786;51.504;7.344;2022-08-11T02:10:48;19.30;59.10
40085;DHT22;25786;51.504;7.344;2022-08-11T02:13:45;19.30;59.50
40085;DHT22;25786;51.504;7.344;2022-08-11T02:18:54;19.20;59.30
40085;DHT22;25786;51.504;7.344;2022-08-11T02:21:45;19.10;59.80
40085;DHT22;25786;51.504;7.344;2022-08-11T02:24:34;19.20;59.30
40085;DHT22;25786;51.504;7.344;2022-08-11T02:27:35;19.10;59.90
40085;DHT22;25786;51.504;7.344;2022-08-11T02:30:07;19.10;60.50
40085;DHT22;25786;51.504;7.344;2022-08-11T02:32:57;19.00;61.20
40085;DHT22;25786;51.504;7.344;2022-08-11T02:38:33;19.00;62.00
40085;DHT22;25786;51.504;7.344;2022-08-11T02:49:39;18.90;62.40
40085;DHT22;25786;51.504;7.344;2022-08-11T02:52:54;18.90;62.40
40085;DHT22;25786;51.504;7.344;2022-08-11T03:00:54;18.80;62.10
40085;DHT22;25786;51.504;7.344;2022-08-11T03:03:28;18.70;63.00
40085;DHT22;25786;51.504;7.344;2022-08-11T03:06:03;18.70;63.60
40085;DHT22;25786;51.504;7.344;2022-08-11T03:11:20;18.60;62.80
40085;DHT22;25786;51.504;7.344;2022-08-11T03:14:11;18.60;62.70
40085;DHT22;25786;51.504;7.344;2022-08-11T03:21:53;18.60;62.10
40085;DHT22;25786;51.504;7.344;2022-08-11T03:24:24;18.50;62.90
40085;DHT22;25786;51.504;7.344;2022-08-11T03:27:02;18.50;62.40
40085;DHT22;25786;51.504;7.344;2022-08-11T03:29:30;18.50;63.30
40085;DHT22;25786;51.504;7.344;2022-08-11T03:34:26;18.40;62.40
40085;DHT22;25786;51.504;7.344;2022-08-11T03:39:37;18.30;62.90
40085;DHT22;25786;51.504;7.344;2022-08-11T03:42:27;18.30;63.30
40085;DHT22;25786;51.504;7.344;2022-08-11T04:00:58;18.10;65.60
40085;DHT22;25786;51.504;7.344;2022-08-11T04:11:39;18.10;63.90
40085;DHT22;25786;51.504;7.344;2022-08-11T04:14:34;18.10;63.90
40085;DHT22;25786;51.504;7.344;2022-08-11T04:28:33;18.00;65.10
40085;DHT22;25786;51.504;7.344;2022-08-11T04:41:52;18.10;64.60
40085;DHT22;25786;51.504;7.344;2022-08-11T04:50:24;18.10;64.20
40085;DHT22;25786;51.504;7.344;2022-08-11T04:53:28;18.10;65.20
40085;DHT22;25786;51.504;7.344;2022-08-11T04:56:18;18.10;66.10
40085;DHT22;25786;51.504;7.344;2022-08-11T05:04:47;18.20;63.30
40085;DHT22;25786;51.504;7.344;2022-08-11T05:12:53;18.30;64.00
40085;DHT22;25786;51.504;7.344;2022-08-11T05:15:32;18.30;64.20
40085;DHT22;25786;51.504;7.344;2022-08-11T05:18:21;18.60;62.60
40085;DHT22;25786;51.504;7.344;2022-08-11T05:21:07;18.60;62.90
40085;DHT22;25786;51.504;7.344;2022-08-11T05:23:55;18.60;62.70
40085;DHT22;25786;51.504;7.344;2022-08-11T05:26:44;18.80;61.30
40085;DHT22;25786;51.504;7.344;2022-08-11T05:29:40;18.70;63.10
40085;DHT22;25786;51.504;7.344;2022-08-11T05:32:25;18.80;61.30
40085;DHT22;25786;51.504;7.344;2022-08-11T05:35:11;18.80;61.70
40085;DHT22;25786;51.504;7.344;2022-08-11T05:37:40;18.80;62.80
40085;DHT22;25786;51.504;7.344;2022-08-11T05:40:10;18.80;62.50
40085;DHT22;25786;51.504;7.344;2022-08-11T05:42:56;19.00;61.60
40085;DHT22;25786;51.504;7.344;2022-08-11T05:45:41;19.00;61.90
40085;DHT22;25786;51.504;7.344;2022-08-11T05:48:33;19.10;61.40
40085;DHT22;25786;51.504;7.344;2022-08-11T05:51:18;19.20;61.10
40085;DHT22;25786;51.504;7.344;2022-08-11T05:54:03;19.20;61.70
40085;DHT22;25786;51.504;7.344;2022-08-11T05:56:55;19.30;62.10
40085;DHT22;25786;51.504;7.344;2022-08-11T05:59:23;19.30;62.10
40085;DHT22;25786;51.504;7.344;2022-08-11T06:01:49;19.30;60.90
40085;DHT22;25786;51.504;7.344;2022-08-11T06:04:16;19.40;60.90
40085;DHT22;25786;51.504;7.344;2022-08-11T06:06:54;19.50;61.70
40085;DHT22;25786;51.504;7.344;2022-08-11T06:09:24;19.50;61.20
40085;DHT22;25786;51.504;7.344;2022-08-11T06:11:50;19.50;61.30
40085;DHT22;25786;51.504;7.344;2022-08-11T06:14:16;19.60;60.40
40085;DHT22;25786;51.504;7.344;2022-08-11T06:16:42;19.70;61.10
40085;DHT22;25786;51.504;7.344;2022-08-11T06:19:11;19.80;60.20
40085;DHT22;25786;51.504;7.344;2022-08-11T06:21:42;20.00;60.00
40085;DHT22;25786;51.504;7.344;2022-08-11T06:24:12;20.10;58.90
40085;DHT22;25786;51.504;7.344;2022-08-11T06:26:39;20.50;57.70
40085;DHT22;25786;51.504;7.344;2022-08-11T06:29:05;20.90;56.50
40085;DHT22;25786;51.504;7.344;2022-08-11T06:31:30;21.00;56.60
40085;DHT22;25786;51.504;7.344;2022-08-11T06:34:08;20.90;56.40
40085;DHT22;25786;51.504;7.344;2022-08-11T06:36:54;20.70;56.20
40085;DHT22;25786;51.504;7.344;2022-08-11T06:39:26;20.60;56.70
40085;DHT22;25786;51.504;7.344;2022-08-11T06:42:06;20.50;56.40
40085;DHT22;25786;51.504;7.344;2022-08-11T06:44:40;20.50;56.70
40085;DHT22;25786;51.504;7.344;2022-08-11T06:47:07;20.60;57.30
40085;DHT22;25786;51.504;7.344;2022-08-11T06:49:34;20.50;57.60
40085;DHT22;25786;51.504;7.344;2022-08-11T06:52:19;20.60;57.20
40085;DHT22;25786;51.504;7.344;2022-08-11T06:54:52;20.60;57.60
40085;DHT22;25786;51.504;7.344;2022-08-11T06:57:29;20.70;56.80
40085;DHT22;25786;51.504;7.344;2022-08-11T07:00:15;20.70;57.10
40085;DHT22;25786;51.504;7.344;2022-08-11T07:02:55;20.80;56.50
40085;DHT22;25786;51.504;7.344;2022-08-11T07:05:38;20.80;56.00
40085;DHT22;25786;51.504;7.344;2022-08-11T07:13:51;21.00;56.40
40085;DHT22;25786;51.504;7.344;2022-08-11T07:16:38;21.20;55.70
40085;DHT22;25786;51.504;7.344;2022-08-11T07:19:06;21.50;54.90
40085;DHT22;25786;51.504;7.344;2022-08-11T07:21:52;21.50;55.10
40085;DHT22;25786;51.504;7.344;2022-08-11T07:24:39;21.70;53.70
40085;DHT22;25786;51.504;7.344;2022-08-11T07:27:24;21.50;54.70
40085;DHT22;25786;51.504;7.344;2022-08-11T07:30:09;21.60;53.70
40085;DHT22;25786;51.504;7.344;2022-08-11T07:32:44;21.60;54.30
40085;DHT22;25786;51.504;7.344;2022-08-11T07:35:15;21.60;54.10
40085;DHT22;25786;51.504;7.344;2022-08-11T07:37:41;21.70;54.80
40085;DHT22;25786;51.504;7.344;2022-08-11T07:40:08;21.80;54.40
40085;DHT22;25786;51.504;7.344;2022-08-11T07:42:33;21.90;53.80
40085;DHT22;25786;51.504;7.344;2022-08-11T07:45:05;22.10;52.30
40085;DHT22;25786;51.504;7.344;2022-08-11T07:47:51;22.40;51.20
40085;DHT22;25786;51.504;7.344;2022-08-11T07:50:39;22.40;52.10
40085;DHT22;25786;51.504;7.344;2022-08-11T07:53:23;22.20;52.60
40085;DHT22;25786;51.504;7.344;2022-08-11T07:55:49;22.20;53.00
40085;DHT22;25786;51.504;7.344;2022-08-11T07:58:15;22.20;53.00
40085;DHT22;25786;51.504;7.344;2022-08-11T08:00:59;22.30;52.90
40085;DHT22;25786;51.504;7.344;2022-08-11T08:03:43;22.50;53.40
40085;DHT22;25786;51.504;7.344;2022-08-11T08:06:28;22.50;51.90
40085;DHT22;25786;51.504;7.344;2022-08-11T08:09:15;22.60;51.60
40085;DHT22;25786;51.504;7.344;2022-08-11T08:12:00;22.80;51.00
40085;DHT22;25786;51.504;7.344;2022-08-11T08:14:46;23.00;51.10
40085;DHT22;25786;51.504;7.344;2022-08-11T08:17:30;23.00;51.90
40085;DHT22;25786;51.504;7.344;2022-08-11T08:20:15;23.10;50.40
40085;DHT22;25786;51.504;7.344;2022-08-11T08:22:41;23.20;51.00
40085;DHT22;25786;51.504;7.344;2022-08-11T08:25:07;23.40;49.10
40085;DHT22;25786;51.504;7.344;2022-08-11T08:27:33;23.60;48.50
40085;DHT22;25786;51.504;7.344;2022-08-11T08:30:00;23.80;47.70
40085;DHT22;25786;51.504;7.344;2022-08-11T08:32:45;23.60;48.40
40085;DHT22;25786;51.504;7.344;2022-08-11T08:35:11;23.70;48.90
40085;DHT22;25786;51.504;7.344;2022-08-11T08:37:36;23.90;47.90
40085;DHT22;25786;51.504;7.344;2022-08-11T08:40:02;24.10;47.00
40085;DHT22;25786;51.504;7.344;2022-08-11T08:42:30;24.00;47.50
40085;DHT22;25786;51.504;7.344;2022-08-11T08:44:58;24.00;47.40
40085;DHT22;25786;51.504;7.344;2022-08-11T08:47:25;24.00;49.20
40085;DHT22;25786;51.504;7.344;2022-08-11T08:49:55;24.00;47.50
40085;DHT22;25786;51.504;7.344;2022-08-11T08:52:22;24.00;47.20
40085;DHT22;25786;51.504;7.344;2022-08-11T08:54:50;24.20;46.60
40085;DHT22;25786;51.504;7.344;2022-08-11T08:57:18;24.30;47.10
40085;DHT22;25786;51.504;7.344;2022-08-11T08:59:46;24.30;46.60
40085;DHT22;25786;51.504;7.344;2022-08-11T09:02:12;24.30;46.80
40085;DHT22;25786;51.504;7.344;2022-08-11T09:04:39;24.30;47.20
40085;DHT22;25786;51.504;7.344;2022-08-11T09:07:08;24.40;47.50
40085;DHT22;25786;51.504;7.344;2022-08-11T09:09:34;24.40;47.20
40085;DHT22;25786;51.504;7.344;2022-08-11T09:12:00;24.50;47.80
40085;DHT22;25786;51.504;7.344;2022-08-11T09:14:37;24.50;46.60
40085;DHT22;25786;51.504;7.344;2022-08-11T09:17:21;24.60;47.20
40085;DHT22;25786;51.504;7.344;2022-08-11T09:19:48;24.60;45.10
40085;DHT22;25786;51.504;7.344;2022-08-11T09:22:17;24.80;46.00
40085;DHT22;25786;51.504;7.344;2022-08-11T09:25:02;24.80;45.60
40085;DHT22;25786;51.504;7.344;2022-08-11T09:27:46;24.80;45.90
40085;DHT22;25786;51.504;7.344;2022-08-11T09:30:12;25.00;44.50
40085;DHT22;25786;51.504;7.344;2022-08-11T09:32:37;25.00;45.40
40085;DHT22;25786;51.504;7.344;2022-08-11T09:35:03;25.30;42.80
40085;DHT22;25786;51.504;7.344;2022-08-11T09:37:29;25.30;44.50
40085;DHT22;25786;51.504;7.344;2022-08-11T09:40:14;25.20;42.50
40085;DHT22;25786;51.504;7.344;2022-08-11T09:42:58;25.20;42.90
40085;DHT22;25786;51.504;7.344;2022-08-11T09:45:47;25.30;42.50
40085;DHT22;25786;51.504;7.344;2022-08-11T09:48:19;25.50;39.10
40085;DHT22;25786;51.504;7.344;2022-08-11T09:50:49;25.50;38.70
40085;DHT22;25786;51.504;7.344;2022-08-11T09:53:15;25.70;39.40
40085;DHT22;25786;51.504;7.344;2022-08-11T09:55:42;25.80;39.40
40085;DHT22;25786;51.504;7.344;2022-08-11T09:58:07;25.80;39.20
40085;DHT22;25786;51.504;7.344;2022-08-11T10:00:40;25.80;41.30
40085;DHT22;25786;51.504;7.344;2022-08-11T10:03:07;25.80;38.60
40085;DHT22;25786;51.504;7.344;2022-08-11T10:05:34;26.00;39.60
40085;DHT22;25786;51.504;7.344;2022-08-11T10:08:19;26.10;39.90
40085;DHT22;25786;51.504;7.344;2022-08-11T10:10:46;26.00;39.90
40085;DHT22;25786;51.504;7.344;2022-08-11T10:13:17;26.20;36.30
40085;DHT22;25786;51.504;7.344;2022-08-11T10:15:43;26.20;37.80
40085;DHT22;25786;51.504;7.344;2022-08-11T10:18:18;26.30;37.30
40085;DHT22;25786;51.504;7.344;2022-08-11T10:21:08;26.30;38.00
40085;DHT22;25786;51.504;7.344;2022-08-11T10:23:34;26.70;36.80
40085;DHT22;25786;51.504;7.344;2022-08-11T10:26:19;26.80;36.80
40085;DHT22;25786;51.504;7.344;2022-08-11T10:29:04;26.60;38.10
40085;DHT22;25786;51.504;7.344;2022-08-11T10:31:51;26.60;37.10
40085;DHT22;25786;51.504;7.344;2022-08-11T10:34:36;26.90;37.00
40085;DHT22;25786;51.504;7.344;2022-08-11T10:37:02;27.10;35.70
40085;DHT22;25786;51.504;7.344;2022-08-11T10:39:27;27.10;35.40
40085;DHT22;25786;51.504;7.344;2022-08-11T10:41:53;26.90;36.30
40085;DHT22;25786;51.504;7.344;2022-08-11T10:44:45;26.90;37.30
40085;DHT22;25786;51.504;7.344;2022-08-11T10:47:13;26.80;38.10
40085;DHT22;25786;51.504;7.344;2022-08-11T10:49:57;26.70;37.60
40085;DHT22;25786;51.504;7.344;2022-08-11T10:52:41;26.80;37.10
40085;DHT22;25786;51.504;7.344;2022-08-11T10:55:27;26.90;38.10
40085;DHT22;25786;51.504;7.344;2022-08-11T10:58:11;26.80;38.60
40085;DHT22;25786;51.504;7.344;2022-08-11T11:00:55;26.90;38.00
40085;DHT22;25786;51.504;7.344;2022-08-11T11:03:27;26.90;37.70
40085;DHT22;25786;51.504;7.344;2022-08-11T11:05:54;26.80;39.00
40085;DHT22;25786;51.504;7.344;2022-08-11T11:08:20;26.90;36.90
40085;DHT22;25786;51.504;7.344;2022-08-11T11:11:08;27.00;36.70
40085;DHT22;25786;51.504;7.344;2022-08-11T11:13:35;27.40;35.70
40085;DHT22;25786;51.504;7.344;2022-08-11T11:16:20;27.30;35.40
40085;DHT22;25786;51.504;7.344;2022-08-11T11:19:05;27.20;36.40
40085;DHT22;25786;51.504;7.344;2022-08-11T11:21:32;27.50;35.70
40085;DHT22;25786;51.504;7.344;2022-08-11T11:24:03;27.40;36.10
40085;DHT22;25786;51.504;7.344;2022-08-11T11:26:40;27.40;35.20
40085;DHT22;25786;51.504;7.344;2022-08-11T11:29:26;27.30;36.50
40085;DHT22;25786;51.504;7.344;2022-08-11T11:31:58;27.70;34.30
40085;DHT22;25786;51.504;7.344;2022-08-11T11:34:43;27.70;35.30
40085;DHT22;25786;51.504;7.344;2022-08-11T11:37:15;27.70;34.40
40085;DHT22;25786;51.504;7.344;2022-08-11T11:39:41;27.60;35.20
40085;DHT22;25786;51.504;7.344;2022-08-11T11:42:09;27.50;36.30
40085;DHT22;25786;51.504;7.344;2022-08-11T11:44:37;27.60;36.50
40085;DHT22;25786;51.504;7.344;2022-08-11T11:47:03;27.60;35.50
40085;DHT22;25786;51.504;7.344;2022-08-11T11:49:30;27.60;34.40
40085;DHT22;25786;51.504;7.344;2022-08-11T11:51:57;27.60;35.00
40085;DHT22;25786;51.504;7.344;2022-08-11T11:54:26;27.70;35.10
40085;DHT22;25786;51.504;7.344;2022-08-11T11:56:53;27.90;34.50
40085;DHT22;25786;51.504;7.344;2022-08-11T11:59:19;27.90;34.00
40085;DHT22;25786;51.504;7.344;2022-08-11T12:02:05;28.00;33.90
40085;DHT22;25786;51.504;7.344;2022-08-11T12:04:30;27.80;35.20
40085;DHT22;25786;51.504;7.344;2022-08-11T12:06:56;27.70;36.00
40085;DHT22;25786;51.504;7.344;2022-08-11T12:09:42;27.80;36.50
40085;DHT22;25786;51.504;7.344;2022-08-11T12:12:08;27.80;34.50
40085;DHT22;25786;51.504;7.344;2022-08-11T12:14:52;27.60;35.70
40085;DHT22;25786;51.504;7.344;2022-08-11T12:17:18;27.80;36.60
40085;DHT22;25786;51.504;7.344;2022-08-11T12:19:43;27.80;36.30
40085;DHT22;25786;51.504;7.344;2022-08-11T12:22:09;27.80;37.00
40085;DHT22;25786;51.504;7.344;2022-08-11T12:24:53;28.00;36.80
40085;DHT22;25786;51.504;7.344;2022-08-11T12:27:37;28.20;34.60
40085;DHT22;25786;51.504;7.344;2022-08-11T12:30:04;28.30;34.90
40085;DHT22;25786;51.504;7.344;2022-08-11T12:32:31;28.50;34.10
40085;DHT22;25786;51.504;7.344;2022-08-11T12:34:57;28.50;34.10
40085;DHT22;25786;51.504;7.344;2022-08-11T12:37:27;28.50;34.60
40085;DHT22;25786;51.504;7.344;2022-08-11T12:42:22;28.30;35.80
40085;DHT22;25786;51.504;7.344;2022-08-11T12:45:08;28.30;34.90
40085;DHT22;25786;51.504;7.344;2022-08-11T12:47:57;28.20;34.70
40085;DHT22;25786;51.504;7.344;2022-08-11T12:50:42;28.30;33.90
40085;DHT22;25786;51.504;7.344;2022-08-11T12:53:27;28.20;34.30
40085;DHT22;25786;51.504;7.344;2022-08-11T12:55:54;28.20;35.20
40085;DHT22;25786;51.504;7.344;2022-08-11T12:58:39;28.30;34.80
40085;DHT22;25786;51.504;7.344;2022-08-11T13:01:05;28.50;33.00
40085;DHT22;25786;51.504;7.344;2022-08-11T13:03:49;28.50;33.40
40085;DHT22;25786;51.504;7.344;2022-08-11T13:06:33;28.40;34.20
40085;DHT22;25786;51.504;7.344;2022-08-11T13:08:59;28.40;34.50
40085;DHT22;25786;51.504;7.344;2022-08-11T13:11:24;28.50;33.00
40085;DHT22;25786;51.504;7.344;2022-08-11T13:14:14;28.70;31.90
40085;DHT22;25786;51.504;7.344;2022-08-11T13:16:41;28.70;32.90
40085;DHT22;25786;51.504;7.344;2022-08-11T13:19:26;29.00;32.50
40085;DHT22;25786;51.504;7.344;2022-08-11T13:21:53;29.10;31.80
40085;DHT22;25786;51.504;7.344;2022-08-11T13:24:19;29.10;31.40
40085;DHT22;25786;51.504;7.344;2022-08-11T13:26:45;29.10;30.70
40085;DHT22;25786;51.504;7.344;2022-08-11T13:29:15;28.90;31.80
40085;DHT22;25786;51.504;7.344;2022-08-11T13:31:41;29.10;31.10
40085;DHT22;25786;51.504;7.344;2022-08-11T13:34:07;29.00;32.00
40085;DHT22;25786;51.504;7.344;2022-08-11T13:36:33;28.90;31.90
40085;DHT22;25786;51.504;7.344;2022-08-11T13:38:58;28.80;30.30
40085;DHT22;25786;51.504;7.344;2022-08-11T13:41:25;28.90;31.40
40085;DHT22;25786;51.504;7.344;2022-08-11T13:44:03;28.70;31.70
40085;DHT22;25786;51.504;7.344;2022-08-11T13:46:29;28.90;31.00
40085;DHT22;25786;51.504;7.344;2022-08-11T13:48:55;28.70;31.00
40085;DHT22;25786;51.504;7.344;2022-08-11T13:51:22;28.70;31.70
40085;DHT22;25786;51.504;7.344;2022-08-11T13:53:55;28.80;31.20
40085;DHT22;25786;51.504;7.344;2022-08-11T13:56:21;28.80;30.60
40085;DHT22;25786;51.504;7.344;2022-08-11T13:58:48;29.00;31.50
40085;DHT22;25786;51.504;7.344;2022-08-11T14:01:14;29.10;30.00
40085;DHT22;25786;51.504;7.344;2022-08-11T14:03:40;29.10;31.50
40085;DHT22;25786;51.504;7.344;2022-08-11T14:06:06;29.10;31.20
40085;DHT22;25786;51.504;7.344;2022-08-11T14:08:34;29.10;31.10
40085;DHT22;25786;51.504;7.344;2022-08-11T14:11:01;29.10;32.00
40085;DHT22;25786;51.504;7.344;2022-08-11T14:13:46;29.00;31.50
40085;DHT22;25786;51.504;7.344;2022-08-11T14:16:25;29.10;31.20
40085;DHT22;25786;51.504;7.344;2022-08-11T14:18:53;29.10;31.30
40085;DHT22;25786;51.504;7.344;2022-08-11T14:21:22;29.00;31.40
40085;DHT22;25786;51.504;7.344;2022-08-11T14:24:07;28.90;31.60
40085;DHT22;25786;51.504;7.344;2022-08-11T14:26:36;29.00;32.30
40085;DHT22;25786;51.504;7.344;2022-08-11T14:29:19;29.10;31.10
40085;DHT22;25786;51.504;7.344;2022-08-11T14:31:49;29.20;30.90
40085;DHT22;25786;51.504;7.344;2022-08-11T14:34:20;29.50;30.00
40085;DHT22;25786;51.504;7.344;2022-08-11T14:36:46;29.40;29.80
40085;DHT22;25786;51.504;7.344;2022-08-11T14:39:15;29.20;30.20
40085;DHT22;25786;51.504;7.344;2022-08-11T14:41:43;29.30;30.60
40085;DHT22;25786;51.504;7.344;2022-08-11T14:44:29;29.50;31.10
40085;DHT22;25786;51.504;7.344;2022-08-11T14:47:14;29.50;29.70
40085;DHT22;25786;51.504;7.344;2022-08-11T14:49:40;29.40;30.30
40085;DHT22;25786;51.504;7.344;2022-08-11T14:52:07;29.10;30.70
40085;DHT22;25786;51.504;7.344;2022-08-11T14:54:33;29.10;31.30
40085;DHT22;25786;51.504;7.344;2022-08-11T14:57:18;29.10;31.40
40085;DHT22;25786;51.504;7.344;2022-08-11T14:59:45;28.90;32.00
40085;DHT22;25786;51.504;7.344;2022-08-11T15:02:14;29.10;31.40
40085;DHT22;25786;51.504;7.344;2022-08-11T15:04:59;29.20;31.40
40085;DHT22;25786;51.504;7.344;2022-08-11T15:07:25;29.30;30.70
40085;DHT22;25786;51.504;7.344;2022-08-11T15:09:58;29.20;30.90
40085;DHT22;25786;51.504;7.344;2022-08-11T15:12:24;29.20;30.60
40085;DHT22;25786;51.504;7.344;2022-08-11T15:14:49;29.10;31.50
40085;DHT22;25786;51.504;7.344;2022-08-11T15:17:34;29.00;31.50
40085;DHT22;25786;51.504;7.344;2022-08-11T15:20:05;29.00;31.10
40085;DHT22;25786;51.504;7.344;2022-08-11T15:22:50;28.90;31.60
40085;DHT22;25786;51.504;7.344;2022-08-11T15:25:34;28.90;31.20
40085;DHT22;25786;51.504;7.344;2022-08-11T15:28:01;28.80;30.90
40085;DHT22;25786;51.504;7.344;2022-08-11T15:31:05;29.00;30.70
40085;DHT22;25786;51.504;7.344;2022-08-11T15:34:07;29.00;31.10
40085;DHT22;25786;51.504;7.344;2022-08-11T15:36:54;28.80;31.60
40085;DHT22;25786;51.504;7.344;2022-08-11T15:39:50;28.70;32.40
40085;DHT22;25786;51.504;7.344;2022-08-11T15:42:48;28.80;32.40
40085;DHT22;25786;51.504;7.344;2022-08-11T15:45:33;29.00;32.10
40085;DHT22;25786;51.504;7.344;2022-08-11T15:48:57;29.00;31.80
40085;DHT22;25786;51.504;7.344;2022-08-11T15:51:05;29.00;30.90
40085;DHT22;25786;51.504;7.344;2022-08-11T15:53:44;29.00;31.80
40085;DHT22;25786;51.504;7.344;2022-08-11T15:56:11;28.90;32.60
40085;DHT22;25786;51.504;7.344;2022-08-11T15:58:41;28.90;32.10
40085;DHT22;25786;51.504;7.344;2022-08-11T16:01:26;29.00;31.00
40085;DHT22;25786;51.504;7.344;2022-08-11T16:04:13;29.10;30.50
40085;DHT22;25786;51.504;7.344;2022-08-11T16:09:05;29.00;31.20
40085;DHT22;25786;51.504;7.344;2022-08-11T16:11:33;29.00;30.50
40085;DHT22;25786;51.504;7.344;2022-08-11T16:13:59;29.20;30.70
40085;DHT22;25786;51.504;7.344;2022-08-11T16:16:45;29.10;30.70
40085;DHT22;25786;51.504;7.344;2022-08-11T16:19:11;29.30;30.30
40085;DHT22;25786;51.504;7.344;2022-08-11T16:21:37;29.50;29.50
40085;DHT22;25786;51.504;7.344;2022-08-11T16:24:11;29.60;29.80
40085;DHT22;25786;51.504;7.344;2022-08-11T16:26:39;29.40;30.20
40085;DHT22;25786;51.504;7.344;2022-08-11T16:29:05;29.20;30.10
40085;DHT22;25786;51.504;7.344;2022-08-11T16:31:31;29.40;29.80
40085;DHT22;25786;51.504;7.344;2022-08-11T16:33:57;29.40;30.10
40085;DHT22;25786;51.504;7.344;2022-08-11T16:36:24;29.20;30.80
40085;DHT22;25786;51.504;7.344;2022-08-11T16:39:09;29.40;30.10
40085;DHT22;25786;51.504;7.344;2022-08-11T16:41:36;29.30;30.20
40085;DHT22;25786;51.504;7.344;2022-08-11T16:44:21;29.40;30.20
40085;DHT22;25786;51.504;7.344;2022-08-11T16:47:08;29.20;30.60
40085;DHT22;25786;51.504;7.344;2022-08-11T16:49:38;29.50;29.60
40085;DHT22;25786;51.504;7.344;2022-08-11T16:52:07;29.40;29.90
40085;DHT22;25786;51.504;7.344;2022-08-11T16:54:36;29.50;29.80
40085;DHT22;25786;51.504;7.344;2022-08-11T16:57:03;29.30;30.20
40085;DHT22;25786;51.504;7.344;2022-08-11T16:59:49;29.00;31.00
40085;DHT22;25786;51.504;7.344;2022-08-11T17:02:15;28.90;30.90
40085;DHT22;25786;51.504;7.344;2022-08-11T17:05:02;28.90;31.00
40085;DHT22;25786;51.504;7.344;2022-08-11T17:07:49;28.80;31.30
40085;DHT22;25786;51.504;7.344;2022-08-11T17:10:38;28.80;31.60
40085;DHT22;25786;51.504;7.344;2022-08-11T17:13:42;28.80;31.60
40085;DHT22;25786;51.504;7.344;2022-08-11T17:16:10;28.80;31.30
40085;DHT22;25786;51.504;7.344;2022-08-11T17:18:38;28.60;32.20
40085;DHT22;25786;51.504;7.344;2022-08-11T17:23:54;28.80;31.40
40085;DHT22;25786;51.504;7.344;2022-08-11T17:26:25;28.70;31.80
40085;DHT22;25786;51.504;7.344;2022-08-11T17:28:55;28.60;32.00
40085;DHT22;25786;51.504;7.344;2022-08-11T17:31:22;28.60;32.70
40085;DHT22;25786;51.504;7.344;2022-08-11T17:34:07;28.50;33.00
40085;DHT22;25786;51.504;7.344;2022-08-11T17:36:55;28.50;33.20
40085;DHT22;25786;51.504;7.344;2022-08-11T17:39:23;28.30;32.90
40085;DHT22;25786;51.504;7.344;2022-08-11T17:41:49;28.30;33.00
40085;DHT22;25786;51.504;7.344;2022-08-11T17:44:34;28.50;32.40
40085;DHT22;25786;51.504;7.344;2022-08-11T17:47:19;28.50;32.30
40085;DHT22;25786;51.504;7.344;2022-08-11T17:50:04;28.50;32.10
40085;DHT22;25786;51.504;7.344;2022-08-11T17:52:30;28.50;31.70
40085;DHT22;25786;51.504;7.344;2022-08-11T17:55:14;28.40;32.50
40085;DHT22;25786;51.504;7.344;2022-08-11T17:58:00;28.50;31.80
40085;DHT22;25786;51.504;7.344;2022-08-11T18:00:44;28.40;32.10
40085;DHT22;25786;51.504;7.344;2022-08-11T18:03:10;28.30;32.40
40085;DHT22;25786;51.504;7.344;2022-08-11T18:05:56;28.20;32.70
40085;DHT22;25786;51.504;7.344;2022-08-11T18:08:23;28.20;32.00
40085;DHT22;25786;51.504;7.344;2022-08-11T18:11:08;28.30;31.80
40085;DHT22;25786;51.504;7.344;2022-08-11T18:13:52;28.10;32.50
40085;DHT22;25786;51.504;7.344;2022-08-11T18:16:38;28.00;32.40
40085;DHT22;25786;51.504;7.344;2022-08-11T18:19:22;27.90;32.50
40085;DHT22;25786;51.504;7.344;2022-08-11T18:22:07;28.00;32.70
40085;DHT22;25786;51.504;7.344;2022-08-11T18:24:53;28.00;33.20
40085;DHT22;25786;51.504;7.344;2022-08-11T18:27:39;27.80;33.60
40085;DHT22;25786;51.504;7.344;2022-08-11T18:30:24;27.70;33.60
40085;DHT22;25786;51.504;7.344;2022-08-11T18:33:09;27.60;33.60
40085;DHT22;25786;51.504;7.344;2022-08-11T18:35:57;27.50;34.20
40085;DHT22;25786;51.504;7.344;2022-08-11T18:38:42;27.30;35.30
40085;DHT22;25786;51.504;7.344;2022-08-11T18:41:28;27.00;36.90
40085;DHT22;25786;51.504;7.344;2022-08-11T18:44:13;27.10;35.00
40085;DHT22;25786;51.504;7.344;2022-08-11T18:46:58;27.40;34.30
40085;DHT22;25786;51.504;7.344;2022-08-11T18:49:44;27.20;35.00
40085;DHT22;25786;51.504;7.344;2022-08-11T18:52:28;27.00;35.30
40085;DHT22;25786;51.504;7.344;2022-08-11T18:55:15;27.00;35.10
40085;DHT22;25786;51.504;7.344;2022-08-11T18:58:02;27.10;35.20
40085;DHT22;25786;51.504;7.344;2022-08-11T19:00:46;27.00;35.80
40085;DHT22;25786;51.504;7.344;2022-08-11T19:03:31;26.90;35.90